Time;durP1;ratioP1;P1;durP2;ratioP2;P2;SDS_P1;SDS_P2;PMS_P1;PMS_P2;Temp;Humidity;BMP_temperature;BMP_pressure;BME280_temperature;BME280_humidity;BME280_pressure;Samples;Min_cycle;Max_cycle;Signal;HPM_P1;HPM_P2
2024/03/07 00:01:33;;;;;;;231.27;58.47;;;;;;;;;;4994819;28;20171;-44
2024/03/07 00:03:59;;;;;;;233.00;58.22;;;;;;;;;;4994463;28;20448;-44
2024/03/07 00:06:25;;;;;;;231.48;56.47;;;;;;;;;;4976775;28;20563;-44
2024/03/07 00:08:51;;;;;;;231.48;57.78;;;;;;;;;;4983746;28;20217;-44
2024/03/07 00:11:17;;;;;;;231.77;58.00;;;;;;;;;;4985682;28;20232;-44
2024/03/07 00:13:43;;;;;;;227.30;58.70;;;;;;;;;;4989527;28;20200;-44
2024/03/07 00:16:10;;;;;;;230.10;59.10;;;;;;;;;;4986698;28;20175;-44
2024/03/07 00:18:36;;;;;;;234.35;59.33;;;;;;;;;;4985636;28;20200;-44
2024/03/07 00:21:03;;;;;;;235.35;60.00;;;;;;;;;;4987044;28;20258;-44
2024/03/07 00:23:31;;;;;;;232.23;58.90;;;;;;;;;;4979539;28;20205;-44
2024/03/07 00:25:57;;;;;;;230.43;57.65;;;;;;;;;;4983284;28;20572;-44
2024/03/07 00:28:23;;;;;;;229.38;57.28;;;;;;;;;;4985788;28;20568;-44
2024/03/07 00:30:50;;;;;;;231.95;57.60;;;;;;;;;;4980798;28;20185;-44
2024/03/07 00:33:16;;;;;;;229.75;57.45;;;;;;;;;;4976448;28;20701;-44
2024/03/07 00:35:43;;;;;;;230.48;57.78;;;;;;;;;;4985999;28;20244;-44
2024/03/07 00:38:09;;;;;;;230.10;57.35;;;;;;;;;;4987873;28;20619;-44
2024/03/07 00:40:35;;;;;;;229.43;56.27;;;;;;;;;;4986757;28;20231;-44
2024/03/07 00:43:01;;;;;;;229.63;57.43;;;;;;;;;;4979132;28;20524;-45
2024/03/07 00:45:27;;;;;;;231.33;58.23;;;;;;;;;;4985130;28;20443;-45
2024/03/07 00:47:53;;;;;;;232.30;59.20;;;;;;;;;;4985968;28;20420;-45
2024/03/07 00:50:19;;;;;;;230.27;58.60;;;;;;;;;;4977299;28;20427;-44
2024/03/07 00:52:45;;;;;;;231.47;58.30;;;;;;;;;;4981618;28;20465;-44
2024/03/07 00:55:11;;;;;;;237.32;62.22;;;;;;;;;;4983943;28;20635;-44
2024/03/07 00:57:37;;;;;;;230.37;57.30;;;;;;;;;;4973845;28;20690;-44
2024/03/07 01:00:11;;;;;;;236.77;62.60;;;;;;;;;;4982581;28;20827;-44
2024/03/07 01:02:38;;;;;;;233.15;58.25;;;;;;;;;;4985837;28;20889;-44
2024/03/07 01:05:09;;;;;;;241.15;67.05;;;;;;;;;;4987816;28;20224;-44
2024/03/07 01:07:37;;;;;;;233.20;59.25;;;;;;;;;;4987613;28;20224;-44
2024/03/07 01:10:05;;;;;;;231.48;58.67;;;;;;;;;;4979855;28;20178;-44
2024/03/07 01:12:31;;;;;;;233.00;58.55;;;;;;;;;;4977689;28;20197;-44
2024/03/07 01:14:58;;;;;;;232.47;58.60;;;;;;;;;;4980541;28;20661;-44
2024/03/07 01:17:24;;;;;;;228.90;56.67;;;;;;;;;;4988914;28;20464;-44
2024/03/07 01:19:50;;;;;;;233.27;58.70;;;;;;;;;;4979330;28;20240;-44
2024/03/07 01:22:16;;;;;;;230.33;56.37;;;;;;;;;;4976295;28;20425;-44
2024/03/07 01:24:43;;;;;;;229.30;56.37;;;;;;;;;;4985925;28;20404;-44
2024/03/07 01:27:09;;;;;;;231.20;58.83;;;;;;;;;;4980620;28;20436;-44
2024/03/07 01:29:35;;;;;;;233.00;58.38;;;;;;;;;;4979522;28;20177;-44
2024/03/07 01:32:03;;;;;;;231.60;58.20;;;;;;;;;;4986758;28;20217;-44
2024/03/07 01:34:29;;;;;;;231.77;57.50;;;;;;;;;;4987095;28;20191;-44
2024/03/07 01:36:55;;;;;;;225.63;56.00;;;;;;;;;;4983235;28;20236;-44
2024/03/07 01:39:21;;;;;;;229.77;57.70;;;;;;;;;;4984866;28;20189;-44
2024/03/07 01:41:47;;;;;;;231.97;58.23;;;;;;;;;;4985452;28;20463;-44
2024/03/07 01:44:13;;;;;;;227.73;57.78;;;;;;;;;;4985118;28;20842;-44
2024/03/07 01:46:41;;;;;;;228.90;57.50;;;;;;;;;;4984920;28;20180;-44
2024/03/07 01:49:07;;;;;;;228.05;57.47;;;;;;;;;;4979811;28;20432;-44
2024/03/07 01:51:34;;;;;;;231.30;57.80;;;;;;;;;;4985719;28;20657;-44
2024/03/07 01:54:00;;;;;;;233.02;60.58;;;;;;;;;;4975337;28;20444;-44
2024/03/07 01:56:26;;;;;;;227.73;57.70;;;;;;;;;;4987863;28;20285;-44
2024/03/07 01:58:52;;;;;;;228.40;57.65;;;;;;;;;;4986283;28;20605;-44
2024/03/07 02:01:18;;;;;;;228.60;59.95;;;;;;;;;;4987982;28;20177;-44
2024/03/07 02:03:44;;;;;;;222.47;55.03;;;;;;;;;;4991874;28;20757;-44
2024/03/07 02:06:11;;;;;;;225.27;55.67;;;;;;;;;;4991521;28;20927;-44
2024/03/07 02:08:37;;;;;;;218.25;56.83;;;;;;;;;;4991631;28;20912;-44
2024/03/07 02:11:03;;;;;;;219.77;57.20;;;;;;;;;;4992068;28;20181;-44
2024/03/07 02:13:31;;;;;;;215.60;53.97;;;;;;;;;;4992359;28;20235;-44
2024/03/07 02:15:57;;;;;;;218.63;56.13;;;;;;;;;;4974905;28;20174;-44
2024/03/07 02:18:23;;;;;;;219.03;56.47;;;;;;;;;;4984976;28;20623;-44
2024/03/07 02:20:49;;;;;;;218.00;55.80;;;;;;;;;;4984039;28;20934;-44
2024/03/07 02:23:15;;;;;;;219.63;56.63;;;;;;;;;;4985803;28;20273;-44
2024/03/07 02:25:42;;;;;;;218.57;55.40;;;;;;;;;;4978130;28;20417;-44
2024/03/07 02:28:08;;;;;;;218.65;54.92;;;;;;;;;;4981313;28;20189;-44
2024/03/07 02:30:34;;;;;;;220.45;56.50;;;;;;;;;;4976665;28;20185;-44
2024/03/07 02:33:06;;;;;;;221.10;56.00;;;;;;;;;;4979021;28;20205;-44
2024/03/07 02:35:35;;;;;;;222.27;55.97;;;;;;;;;;4985234;28;20912;-44
2024/03/07 02:38:02;;;;;;;222.40;57.47;;;;;;;;;;4980482;28;20678;-44
2024/03/07 02:40:28;;;;;;;220.70;56.78;;;;;;;;;;4979049;28;20182;-44
2024/03/07 02:42:54;;;;;;;224.95;58.75;;;;;;;;;;4980581;28;20204;-44
2024/03/07 02:45:20;;;;;;;220.63;56.50;;;;;;;;;;4983647;28;20182;-44
2024/03/07 02:47:46;;;;;;;220.93;57.17;;;;;;;;;;4984167;28;20427;-44
2024/03/07 02:50:12;;;;;;;221.77;57.05;;;;;;;;;;4984923;28;20180;-44
2024/03/07 02:52:38;;;;;;;220.38;57.20;;;;;;;;;;4983183;28;20700;-44
2024/03/07 02:55:05;;;;;;;226.38;61.65;;;;;;;;;;4974270;28;20185;-44
2024/03/07 02:57:31;;;;;;;221.95;57.22;;;;;;;;;;4987499;28;20251;-44
2024/03/07 02:59:57;;;;;;;223.20;58.03;;;;;;;;;;4985839;28;20182;-44
2024/03/07 03:02:23;;;;;;;221.07;57.10;;;;;;;;;;4980818;28;20203;-44
2024/03/07 03:04:50;;;;;;;223.50;57.40;;;;;;;;;;4984094;28;20443;-44
2024/03/07 03:07:17;;;;;;;215.73;54.00;;;;;;;;;;4978048;28;20603;-44
2024/03/07 03:09:43;;;;;;;219.95;56.33;;;;;;;;;;4981213;28;20231;-44
2024/03/07 03:12:10;;;;;;;222.50;57.63;;;;;;;;;;4977657;28;20186;-44
2024/03/07 03:14:36;;;;;;;221.65;56.78;;;;;;;;;;4971863;28;20925;-44
2024/03/07 03:17:02;;;;;;;221.05;56.45;;;;;;;;;;4983040;28;20520;-44
2024/03/07 03:19:28;;;;;;;218.15;55.15;;;;;;;;;;4984950;28;20244;-44
2024/03/07 03:21:55;;;;;;;219.60;56.72;;;;;;;;;;4984045;28;20629;-44
2024/03/07 03:24:21;;;;;;;220.57;55.60;;;;;;;;;;4981929;28;20216;-44
2024/03/07 03:26:47;;;;;;;220.98;56.28;;;;;;;;;;4985272;28;20684;-44
2024/03/07 03:29:16;;;;;;;220.07;55.40;;;;;;;;;;4977236;28;20183;-44
2024/03/07 03:31:42;;;;;;;220.70;56.00;;;;;;;;;;4977712;28;20173;-44
2024/03/07 03:34:09;;;;;;;220.43;56.20;;;;;;;;;;4982503;28;20197;-44
2024/03/07 03:36:35;;;;;;;219.10;54.92;;;;;;;;;;4980853;28;20804;-44
2024/03/07 03:39:01;;;;;;;219.00;54.63;;;;;;;;;;4972885;28;20193;-44
2024/03/07 03:41:27;;;;;;;216.60;54.50;;;;;;;;;;4982366;28;20811;-44
2024/03/07 03:43:53;;;;;;;220.82;54.75;;;;;;;;;;4983698;28;20515;-44
2024/03/07 03:46:19;;;;;;;220.27;55.40;;;;;;;;;;4981219;28;20268;-44
2024/03/07 03:48:45;;;;;;;223.17;56.57;;;;;;;;;;4982181;28;20470;-44
2024/03/07 03:51:12;;;;;;;218.97;54.70;;;;;;;;;;4981167;28;20420;-44
2024/03/07 03:53:39;;;;;;;221.55;56.22;;;;;;;;;;4985005;28;20462;-44
2024/03/07 03:56:06;;;;;;;224.35;57.60;;;;;;;;;;4982858;28;20193;-44
2024/03/07 03:58:32;;;;;;;220.80;55.92;;;;;;;;;;4981539;28;20668;-44
2024/03/07 04:01:01;;;;;;;220.38;56.08;;;;;;;;;;4984547;28;20174;-43
2024/03/07 04:03:27;;;;;;;221.68;56.38;;;;;;;;;;4983360;28;20197;-44
2024/03/07 04:05:53;;;;;;;223.52;57.35;;;;;;;;;;4981660;28;20648;-44
2024/03/07 04:08:20;;;;;;;223.00;56.60;;;;;;;;;;4983448;28;20188;-44
2024/03/07 04:10:46;;;;;;;220.63;56.72;;;;;;;;;;4983595;28;20276;-44
2024/03/07 04:13:12;;;;;;;221.73;57.05;;;;;;;;;;4980127;28;20231;-44
2024/03/07 04:15:38;;;;;;;220.10;56.13;;;;;;;;;;4976610;28;20205;-44
2024/03/07 04:18:04;;;;;;;221.87;57.50;;;;;;;;;;4979126;28;20255;-44
2024/03/07 04:20:30;;;;;;;219.82;56.53;;;;;;;;;;4986195;28;20419;-44
2024/03/07 04:22:56;;;;;;;219.43;56.67;;;;;;;;;;4988025;28;20205;-44
2024/03/07 04:25:24;;;;;;;220.67;58.27;;;;;;;;;;4989660;28;20416;-44
2024/03/07 04:27:51;;;;;;;218.23;55.85;;;;;;;;;;4986553;28;20903;-44
2024/03/07 04:30:17;;;;;;;221.80;57.28;;;;;;;;;;4974815;28;20184;-43
2024/03/07 04:32:43;;;;;;;219.02;56.10;;;;;;;;;;4990103;28;20197;-44
2024/03/07 04:35:10;;;;;;;222.90;59.35;;;;;;;;;;4993702;28;20172;-45
2024/03/07 04:37:36;;;;;;;218.77;57.13;;;;;;;;;;4993712;28;20192;-44
2024/03/07 04:40:04;;;;;;;217.00;55.17;;;;;;;;;;4994051;28;20181;-44
2024/03/07 04:42:30;;;;;;;219.38;56.42;;;;;;;;;;4993817;28;20197;-44
2024/03/07 04:44:56;;;;;;;221.80;56.85;;;;;;;;;;4993662;28;20684;-44
2024/03/07 04:47:22;;;;;;;219.20;54.40;;;;;;;;;;4993702;28;20193;-45
2024/03/07 04:49:48;;;;;;;221.43;56.70;;;;;;;;;;4993964;28;20177;-44
2024/03/07 04:52:14;;;;;;;224.82;59.28;;;;;;;;;;4988115;28;20285;-44
2024/03/07 04:54:40;;;;;;;220.23;56.78;;;;;;;;;;4980453;28;20260;-44
2024/03/07 04:57:06;;;;;;;216.17;54.87;;;;;;;;;;4987895;28;20189;-44
2024/03/07 04:59:32;;;;;;;222.70;56.30;;;;;;;;;;4983708;28;20794;-44
2024/03/07 05:01:58;;;;;;;218.70;55.73;;;;;;;;;;4985262;28;20784;-44
2024/03/07 05:04:24;;;;;;;219.52;56.05;;;;;;;;;;4985728;28;20779;-45
2024/03/07 05:06:50;;;;;;;219.37;57.23;;;;;;;;;;4981710;28;20204;-44
2024/03/07 05:09:25;;;;;;;213.30;53.77;;;;;;;;;;4977190;28;20451;-44
2024/03/07 05:11:51;;;;;;;215.80;55.95;;;;;;;;;;4983158;28;20415;-45
2024/03/07 05:14:18;;;;;;;214.25;54.17;;;;;;;;;;4989408;28;20684;-44
2024/03/07 05:16:44;;;;;;;219.00;56.53;;;;;;;;;;4985836;28;20547;-44
2024/03/07 05:19:10;;;;;;;217.73;55.25;;;;;;;;;;4984438;28;20553;-44
2024/03/07 05:21:40;;;;;;;217.47;55.43;;;;;;;;;;4984033;28;20188;-44
2024/03/07 05:24:07;;;;;;;216.85;55.78;;;;;;;;;;4987764;28;20429;-44
2024/03/07 05:26:35;;;;;;;217.35;55.03;;;;;;;;;;4988195;28;20251;-44
2024/03/07 05:29:05;;;;;;;220.85;54.55;;;;;;;;;;4984858;28;20700;-44
2024/03/07 05:31:35;;;;;;;218.20;56.05;;;;;;;;;;4985210;28;20208;-44
2024/03/07 05:34:03;;;;;;;220.07;56.42;;;;;;;;;;4986469;28;20276;-44
2024/03/07 05:36:30;;;;;;;218.57;56.40;;;;;;;;;;4984579;28;20177;-44
2024/03/07 05:38:56;;;;;;;216.93;55.60;;;;;;;;;;4986739;28;20201;-43
2024/03/07 05:41:22;;;;;;;221.35;57.58;;;;;;;;;;4988334;28;20176;-44
2024/03/07 05:43:51;;;;;;;217.30;55.47;;;;;;;;;;4984929;28;20243;-44
2024/03/07 05:46:17;;;;;;;219.88;55.70;;;;;;;;;;4972696;28;20487;-44
2024/03/07 05:48:45;;;;;;;219.15;56.78;;;;;;;;;;4982316;28;20205;-45
2024/03/07 05:51:11;;;;;;;216.52;54.75;;;;;;;;;;4979765;28;20195;-44
2024/03/07 05:53:37;;;;;;;215.37;55.37;;;;;;;;;;4987607;28;20216;-44
2024/03/07 05:56:04;;;;;;;216.27;55.93;;;;;;;;;;4984456;28;20428;-44
2024/03/07 05:58:30;;;;;;;217.25;55.88;;;;;;;;;;4985595;28;20460;-44
2024/03/07 06:00:56;;;;;;;215.60;55.57;;;;;;;;;;4985873;28;20529;-45
2024/03/07 06:03:24;;;;;;;215.50;54.78;;;;;;;;;;4979876;28;20443;-44
2024/03/07 06:05:50;;;;;;;217.48;57.42;;;;;;;;;;4980017;28;20594;-44
2024/03/07 06:08:19;;;;;;;212.95;54.00;;;;;;;;;;4971465;28;20177;-44
2024/03/07 06:10:46;;;;;;;214.20;55.20;;;;;;;;;;4987042;28;20172;-48
2024/03/07 06:13:12;;;;;;;214.85;55.25;;;;;;;;;;4987560;28;20248;-44
2024/03/07 06:15:39;;;;;;;218.73;56.65;;;;;;;;;;4986029;28;20660;-44
2024/03/07 06:18:05;;;;;;;219.27;55.60;;;;;;;;;;4986535;28;20205;-44
2024/03/07 06:20:31;;;;;;;218.27;56.60;;;;;;;;;;4985220;28;20574;-44
2024/03/07 06:22:58;;;;;;;217.38;55.17;;;;;;;;;;4981370;28;20204;-44
2024/03/07 06:28:10;;;;;;;213.55;54.53;;;;;;;;;;4988354;28;20764;-45
2024/03/07 06:30:41;;;;;;;215.83;54.20;;;;;;;;;;4992010;28;20276;-44
2024/03/07 06:33:07;;;;;;;216.40;55.40;;;;;;;;;;4991809;28;20804;-44
2024/03/07 06:35:39;;;;;;;224.13;59.10;;;;;;;;;;4990714;28;20220;-44
2024/03/07 06:38:09;;;;;;;220.10;57.20;;;;;;;;;;4991143;28;20192;-44
2024/03/07 06:40:36;;;;;;;222.25;57.53;;;;;;;;;;4991063;28;20173;-44
2024/03/07 06:43:06;;;;;;;218.80;55.20;;;;;;;;;;4991309;28;20669;-44
2024/03/07 06:45:32;;;;;;;214.40;53.50;;;;;;;;;;4991241;28;20629;-44
2024/03/07 06:47:58;;;;;;;218.15;54.92;;;;;;;;;;4991064;28;20231;-44
2024/03/07 06:50:24;;;;;;;219.32;55.65;;;;;;;;;;4991102;28;20180;-46
2024/03/07 06:52:50;;;;;;;216.97;55.50;;;;;;;;;;4991068;28;20216;-44
2024/03/07 06:55:19;;;;;;;220.30;56.95;;;;;;;;;;4987167;28;20697;-44
2024/03/07 06:57:46;;;;;;;222.23;57.50;;;;;;;;;;4990785;28;20204;-44
2024/03/07 07:00:12;;;;;;;217.88;53.60;;;;;;;;;;4991033;28;20472;-44
2024/03/07 07:02:39;;;;;;;221.68;56.85;;;;;;;;;;4990863;28;20193;-44
2024/03/07 07:05:11;;;;;;;221.90;58.58;;;;;;;;;;4990987;28;20254;-45
2024/03/07 07:07:38;;;;;;;220.13;56.90;;;;;;;;;;4991562;28;20180;-45
2024/03/07 07:10:04;;;;;;;220.20;56.30;;;;;;;;;;4991348;28;20653;-44
2024/03/07 07:12:30;;;;;;;219.55;56.03;;;;;;;;;;4991291;28;20212;-44
2024/03/07 07:14:56;;;;;;;220.88;57.72;;;;;;;;;;4991134;28;20181;-45
2024/03/07 07:17:23;;;;;;;221.27;58.77;;;;;;;;;;4991214;28;20258;-44
2024/03/07 07:19:49;;;;;;;221.82;59.08;;;;;;;;;;4991374;28;20904;-44
2024/03/07 07:22:17;;;;;;;222.02;59.17;;;;;;;;;;4991088;28;20266;-44
2024/03/07 07:24:43;;;;;;;222.80;60.08;;;;;;;;;;4991284;28;20169;-45
2024/03/07 07:27:09;;;;;;;224.50;60.93;;;;;;;;;;4982510;28;20192;-45
2024/03/07 07:29:35;;;;;;;222.83;58.90;;;;;;;;;;4977430;28;20423;-44
2024/03/07 07:32:01;;;;;;;226.63;61.53;;;;;;;;;;4984899;28;20489;-44
2024/03/07 07:34:27;;;;;;;225.60;62.40;;;;;;;;;;4983263;28;20577;-45
2024/03/07 07:36:53;;;;;;;228.30;62.00;;;;;;;;;;4983326;28;21054;-44
2024/03/07 07:39:19;;;;;;;228.63;63.30;;;;;;;;;;4984636;28;20283;-44
2024/03/07 07:41:45;;;;;;;226.38;62.30;;;;;;;;;;4981735;28;20280;-44
2024/03/07 07:44:11;;;;;;;225.70;61.70;;;;;;;;;;4980822;28;20329;-45
2024/03/07 07:46:37;;;;;;;229.02;63.30;;;;;;;;;;4984062;28;20424;-45
2024/03/07 07:49:03;;;;;;;227.17;63.50;;;;;;;;;;4984664;28;20188;-45
2024/03/07 07:51:29;;;;;;;227.87;63.27;;;;;;;;;;4985983;28;20470;-45
2024/03/07 07:53:56;;;;;;;230.65;65.05;;;;;;;;;;4985869;28;20521;-45
2024/03/07 07:56:24;;;;;;;231.23;65.88;;;;;;;;;;4986363;28;20187;-44
2024/03/07 07:58:51;;;;;;;235.52;69.30;;;;;;;;;;4982938;28;20204;-45
2024/03/07 08:01:17;;;;;;;235.95;68.25;;;;;;;;;;4978581;28;20169;-45
2024/03/07 08:03:44;;;;;;;239.45;72.00;;;;;;;;;;4989496;28;20208;-45
2024/03/07 08:06:10;;;;;;;233.98;69.10;;;;;;;;;;4994267;28;20232;-44
2024/03/07 08:08:36;;;;;;;236.70;68.90;;;;;;;;;;4994457;28;20240;-45
2024/03/07 08:11:02;;;;;;;235.77;71.07;;;;;;;;;;4994593;28;20680;-45
2024/03/07 08:13:28;;;;;;;238.27;72.35;;;;;;;;;;4994214;28;20479;-45
2024/03/07 08:15:54;;;;;;;238.17;72.37;;;;;;;;;;4994116;28;20181;-45
2024/03/07 08:18:21;;;;;;;231.87;67.47;;;;;;;;;;4994211;28;20451;-46
2024/03/07 08:20:47;;;;;;;235.48;71.38;;;;;;;;;;4994310;28;20762;-45
2024/03/07 08:23:13;;;;;;;232.85;68.28;;;;;;;;;;4994135;28;20213;-44
2024/03/07 08:25:40;;;;;;;231.48;66.68;;;;;;;;;;4993876;28;20189;-45
2024/03/07 08:28:06;;;;;;;231.20;68.10;;;;;;;;;;4994019;28;20188;-45
2024/03/07 08:30:32;;;;;;;229.88;64.85;;;;;;;;;;4994264;28;20173;-45
2024/03/07 08:33:01;;;;;;;229.63;67.32;;;;;;;;;;4994019;28;20694;-45
2024/03/07 08:35:28;;;;;;;227.57;65.38;;;;;;;;;;4993987;28;20641;-45
2024/03/07 08:37:57;;;;;;;229.98;65.60;;;;;;;;;;4994025;28;20208;-45
2024/03/07 08:40:33;;;;;;;226.57;62.38;;;;;;;;;;4994086;28;20168;-45
2024/03/07 08:43:00;;;;;;;226.80;64.43;;;;;;;;;;4993770;28;20555;-45
2024/03/07 08:45:26;;;;;;;230.45;70.22;;;;;;;;;;4994137;28;20176;-44
2024/03/07 08:47:56;;;;;;;228.02;65.13;;;;;;;;;;4993616;28;20180;-44
2024/03/07 08:50:23;;;;;;;225.05;63.95;;;;;;;;;;4993791;28;20204;-45
2024/03/07 08:52:49;;;;;;;227.20;64.85;;;;;;;;;;4993628;28;20310;-45
2024/03/07 08:55:16;;;;;;;229.30;67.13;;;;;;;;;;4989604;28;20266;-45
2024/03/07 08:57:45;;;;;;;225.48;62.60;;;;;;;;;;4993996;28;20697;-45
2024/03/07 09:00:16;;;;;;;226.05;64.15;;;;;;;;;;4994227;28;20176;-44
2024/03/07 09:02:45;;;;;;;226.55;64.25;;;;;;;;;;4993707;28;20196;-44
2024/03/07 09:05:11;;;;;;;230.10;66.57;;;;;;;;;;4992030;28;20177;-44
2024/03/07 09:07:37;;;;;;;225.77;64.20;;;;;;;;;;4993475;28;20199;-44
2024/03/07 09:10:04;;;;;;;226.07;62.47;;;;;;;;;;4993304;28;20415;-44
2024/03/07 09:12:29;;;;;;;225.05;63.00;;;;;;;;;;4988119;28;20471;-44
2024/03/07 09:14:59;;;;;;;222.77;62.57;;;;;;;;;;4990597;28;20238;-45
2024/03/07 09:17:25;;;;;;;222.93;61.15;;;;;;;;;;4993623;28;20985;-46
2024/03/07 09:19:50;;;;;;;225.83;63.57;;;;;;;;;;4993722;28;20176;-44
2024/03/07 09:22:17;;;;;;;225.13;62.47;;;;;;;;;;4993154;28;20470;-45
2024/03/07 09:24:42;;;;;;;229.98;67.47;;;;;;;;;;4993139;28;20419;-44
2024/03/07 09:27:08;;;;;;;228.70;66.00;;;;;;;;;;4992564;28;20280;-44
2024/03/07 09:29:35;;;;;;;230.40;67.00;;;;;;;;;;4993279;28;20479;-44
2024/03/07 09:32:02;;;;;;;240.30;74.32;;;;;;;;;;4990096;28;20420;-45
2024/03/07 09:34:30;;;;;;;231.13;67.97;;;;;;;;;;4974362;28;20169;-44
2024/03/07 09:36:57;;;;;;;230.50;67.22;;;;;;;;;;4989838;28;20204;-44
2024/03/07 09:39:23;;;;;;;231.82;67.60;;;;;;;;;;4986210;28;20707;-45
2024/03/07 09:41:51;;;;;;;233.23;66.23;;;;;;;;;;4992755;28;20177;-45
2024/03/07 09:44:22;;;;;;;235.90;70.63;;;;;;;;;;4989492;28;20420;-44
2024/03/07 09:46:50;;;;;;;234.70;69.07;;;;;;;;;;4992397;28;20174;-45
2024/03/07 09:49:16;;;;;;;237.30;71.07;;;;;;;;;;4992587;28;20174;-45
2024/03/07 09:51:44;;;;;;;235.68;69.43;;;;;;;;;;4986988;28;20629;-45
2024/03/07 09:54:10;;;;;;;242.13;75.53;;;;;;;;;;4987968;28;20232;-44
2024/03/07 09:56:40;;;;;;;240.85;75.10;;;;;;;;;;4990549;28;20182;-45
2024/03/07 09:59:06;;;;;;;241.85;73.53;;;;;;;;;;4990454;28;20268;-45
2024/03/07 10:01:34;;;;;;;235.82;71.75;;;;;;;;;;4991738;28;20192;-44
2024/03/07 10:04:14;;;;;;;240.88;74.60;;;;;;;;;;4991725;28;20216;-45
2024/03/07 10:06:40;;;;;;;239.43;72.70;;;;;;;;;;4991188;28;20249;-45
2024/03/07 10:09:10;;;;;;;241.63;75.85;;;;;;;;;;4992239;28;20261;-44
2024/03/07 10:11:39;;;;;;;237.82;70.95;;;;;;;;;;4992044;28;20177;-45
2024/03/07 10:14:05;;;;;;;244.07;76.40;;;;;;;;;;4990693;28;20205;-44
2024/03/07 10:16:32;;;;;;;238.88;73.75;;;;;;;;;;4991687;28;20412;-45
2024/03/07 10:19:00;;;;;;;238.82;72.05;;;;;;;;;;4991886;28;20283;-45
2024/03/07 10:21:26;;;;;;;238.90;72.22;;;;;;;;;;4991947;28;20167;-44
2024/03/07 10:24:05;;;;;;;239.07;71.90;;;;;;;;;;4992424;28;20253;-45
2024/03/07 10:26:34;;;;;;;238.77;71.82;;;;;;;;;;4991811;28;20888;-43
2024/03/07 10:29:00;;;;;;;241.70;75.55;;;;;;;;;;4990912;28;20263;-44
2024/03/07 10:31:29;;;;;;;236.40;70.77;;;;;;;;;;4987941;28;20307;-44
2024/03/07 10:33:59;;;;;;;235.95;70.53;;;;;;;;;;4989405;28;20954;-45
2024/03/07 10:36:25;;;;;;;237.15;70.43;;;;;;;;;;4991600;28;20185;-45
2024/03/07 10:38:55;;;;;;;235.07;69.47;;;;;;;;;;4991695;28;20204;-44
2024/03/07 10:41:22;;;;;;;233.23;68.50;;;;;;;;;;4991804;28;20178;-44
2024/03/07 10:43:50;;;;;;;234.57;71.53;;;;;;;;;;4991717;28;20201;-44
2024/03/07 10:46:17;;;;;;;232.55;69.60;;;;;;;;;;4991473;28;20297;-44
2024/03/07 10:48:45;;;;;;;233.60;70.47;;;;;;;;;;4991821;28;20175;-45
2024/03/07 10:51:35;;;;;;;234.13;72.43;;;;;;;;;;4991797;28;20199;-44
2024/03/07 10:54:17;;;;;;;238.80;75.22;;;;;;;;;;4987494;28;20686;-44
2024/03/07 10:56:48;;;;;;;238.10;72.13;;;;;;;;;;4991138;28;20594;-45
2024/03/07 10:59:21;;;;;;;239.15;72.63;;;;;;;;;;4991364;28;20677;-45
2024/03/07 11:01:56;;;;;;;244.40;80.88;;;;;;;;;;4991710;28;20187;-45
2024/03/07 11:04:24;;;;;;;240.77;75.00;;;;;;;;;;4991624;28;20661;-45
2024/03/07 11:06:50;;;;;;;240.30;76.03;;;;;;;;;;4991224;28;20437;-45
2024/03/07 11:09:22;;;;;;;250.17;86.87;;;;;;;;;;4991452;28;20461;-45
2024/03/07 11:11:48;;;;;;;243.03;81.03;;;;;;;;;;4991614;28;20476;-45
2024/03/07 11:14:16;;;;;;;241.90;77.07;;;;;;;;;;4991327;28;20514;-45
2024/03/07 11:16:42;;;;;;;242.23;78.90;;;;;;;;;;4991145;28;20419;-45
2024/03/07 11:19:22;;;;;;;244.90;81.97;;;;;;;;;;4991290;28;20598;-46
2024/03/07 11:21:48;;;;;;;244.00;81.33;;;;;;;;;;4991189;28;20419;-45
2024/03/07 11:24:28;;;;;;;248.20;84.10;;;;;;;;;;4991182;28;20435;-45
2024/03/07 11:26:55;;;;;;;246.93;83.00;;;;;;;;;;4990966;28;20400;-46
2024/03/07 11:29:42;;;;;;;245.53;83.37;;;;;;;;;;4994028;28;20412;-46
2024/03/07 11:32:10;;;;;;;247.97;84.90;;;;;;;;;;4995205;28;20435;-45
2024/03/07 11:34:38;;;;;;;252.20;90.33;;;;;;;;;;4995309;28;20412;-45
2024/03/07 11:37:07;;;;;;;246.37;84.40;;;;;;;;;;4994878;28;20490;-45
2024/03/07 11:39:41;;;;;;;245.10;80.70;;;;;;;;;;4988335;28;20528;-44
2024/03/07 11:42:07;;;;;;;249.63;87.40;;;;;;;;;;4982326;28;20769;-45
2024/03/07 11:44:34;;;;;;;246.13;84.17;;;;;;;;;;4989849;28;20403;-45
2024/03/07 11:47:08;;;;;;;247.33;87.77;;;;;;;;;;4994548;28;20775;-45
2024/03/07 11:49:35;;;;;;;245.10;81.03;;;;;;;;;;4976497;28;20462;-44
2024/03/07 11:52:04;;;;;;;245.67;80.90;;;;;;;;;;4992612;28;20416;-45
2024/03/07 11:54:31;;;;;;;245.33;79.47;;;;;;;;;;4989899;28;21140;-45
2024/03/07 11:56:57;;;;;;;246.67;81.20;;;;;;;;;;4984650;28;21006;-45
2024/03/07 11:59:32;;;;;;;244.77;79.10;;;;;;;;;;4993065;28;20519;-45
2024/03/07 12:02:01;;;;;;;248.37;82.03;;;;;;;;;;4991444;28;20456;-45
2024/03/07 12:04:27;;;;;;;242.27;77.50;;;;;;;;;;4994686;28;20861;-45
2024/03/07 12:06:53;;;;;;;241.93;77.17;;;;;;;;;;4994354;28;20444;-44
2024/03/07 12:09:23;;;;;;;242.83;78.03;;;;;;;;;;4994636;28;20920;-44
2024/03/07 12:11:52;;;;;;;239.70;73.50;;;;;;;;;;4994419;28;20908;-44
2024/03/07 12:14:19;;;;;;;239.57;74.32;;;;;;;;;;4994556;28;20193;-44
2024/03/07 12:16:45;;;;;;;238.35;72.97;;;;;;;;;;4994274;28;20176;-44
2024/03/07 12:19:11;;;;;;;238.80;72.82;;;;;;;;;;4994184;28;20200;-44
2024/03/07 12:21:38;;;;;;;239.15;74.28;;;;;;;;;;4994295;28;20185;-45
2024/03/07 12:24:15;;;;;;;237.75;72.75;;;;;;;;;;4994004;28;20710;-44
2024/03/07 12:26:41;;;;;;;235.82;71.88;;;;;;;;;;4994086;28;20523;-44
2024/03/07 12:29:11;;;;;;;235.97;73.30;;;;;;;;;;4994082;28;20245;-44
2024/03/07 12:31:40;;;;;;;233.18;69.30;;;;;;;;;;4994168;28;20468;-44
2024/03/07 12:34:09;;;;;;;238.68;74.53;;;;;;;;;;4993931;28;20256;-45
2024/03/07 12:36:45;;;;;;;234.05;71.30;;;;;;;;;;4993862;28;20210;-44
2024/03/07 12:39:24;;;;;;;234.73;71.60;;;;;;;;;;4993573;28;20200;-44
2024/03/07 12:41:53;;;;;;;234.43;69.63;;;;;;;;;;4994161;28;20187;-43
2024/03/07 12:44:22;;;;;;;231.57;67.95;;;;;;;;;;4993817;28;20223;-44
2024/03/07 12:46:48;;;;;;;233.68;69.18;;;;;;;;;;4981225;28;20166;-44
2024/03/07 12:49:17;;;;;;;236.80;72.45;;;;;;;;;;4992004;28;20186;-44
2024/03/07 12:51:44;;;;;;;238.35;76.22;;;;;;;;;;4993610;28;20178;-44
2024/03/07 12:54:10;;;;;;;235.93;73.43;;;;;;;;;;4988931;28;20208;-44
2024/03/07 12:56:37;;;;;;;234.03;71.47;;;;;;;;;;4993339;28;20182;-43
2024/03/07 12:59:03;;;;;;;231.18;66.55;;;;;;;;;;4993571;28;20982;-45
2024/03/07 13:01:33;;;;;;;230.75;65.60;;;;;;;;;;4992998;28;20170;-44
2024/03/07 13:03:59;;;;;;;231.48;65.93;;;;;;;;;;4984816;28;20670;-44
2024/03/07 13:06:29;;;;;;;235.18;68.18;;;;;;;;;;4985515;28;20182;-44
2024/03/07 13:08:56;;;;;;;234.55;69.22;;;;;;;;;;4991964;28;20204;-45
2024/03/07 13:11:23;;;;;;;233.88;69.60;;;;;;;;;;4992933;28;20260;-45
2024/03/07 13:13:49;;;;;;;231.00;66.72;;;;;;;;;;4993386;28;20281;-45
2024/03/07 13:16:15;;;;;;;235.30;67.47;;;;;;;;;;4991730;28;20257;-44
2024/03/07 13:18:41;;;;;;;232.37;67.60;;;;;;;;;;4993101;28;20841;-45
2024/03/07 13:21:07;;;;;;;234.63;70.33;;;;;;;;;;4985290;28;20476;-44
2024/03/07 13:23:33;;;;;;;232.85;69.13;;;;;;;;;;4993194;28;20473;-45
2024/03/07 13:26:00;;;;;;;234.63;72.60;;;;;;;;;;4992896;28;20204;-44
2024/03/07 13:28:28;;;;;;;234.25;72.03;;;;;;;;;;4993086;28;20470;-45
2024/03/07 13:30:54;;;;;;;235.68;69.80;;;;;;;;;;4985033;28;20201;-45
2024/03/07 13:33:20;;;;;;;231.77;66.95;;;;;;;;;;4992931;28;20571;-45
2024/03/07 13:35:46;;;;;;;231.25;68.53;;;;;;;;;;4992718;28;20186;-44
2024/03/07 13:38:12;;;;;;;230.55;67.57;;;;;;;;;;4992732;28;20271;-44
2024/03/07 13:40:39;;;;;;;233.35;69.85;;;;;;;;;;4993095;28;20648;-44
2024/03/07 13:43:05;;;;;;;233.48;68.32;;;;;;;;;;4992830;28;20207;-44
2024/03/07 13:45:34;;;;;;;235.32;70.22;;;;;;;;;;4992402;28;20181;-44
2024/03/07 13:48:00;;;;;;;234.20;70.10;;;;;;;;;;4992567;28;20484;-44
2024/03/07 13:50:28;;;;;;;235.65;73.00;;;;;;;;;;4992286;28;20256;-44
2024/03/07 13:53:12;;;;;;;233.40;68.22;;;;;;;;;;4992026;28;20218;-44
2024/03/07 13:55:50;;;;;;;229.95;65.38;;;;;;;;;;4988780;28;20530;-44
2024/03/07 13:58:42;;;;;;;233.10;70.70;;;;;;;;;;4992293;28;20209;-44
2024/03/07 14:01:24;;;;;;;230.90;66.10;;;;;;;;;;4984050;28;20194;-44
2024/03/07 14:03:52;;;;;;;231.48;67.43;;;;;;;;;;4993026;28;20829;-44
2024/03/07 14:06:25;;;;;;;235.73;71.97;;;;;;;;;;4991911;28;20234;-43
2024/03/07 14:09:10;;;;;;;234.25;71.05;;;;;;;;;;4991028;28;20181;-45